Time;durP1;ratioP1;P1;durP2;ratioP2;P2;SDS_P1;SDS_P2;PMS_P1;PMS_P2;Temp;Humidity;BMP_temperature;BMP_pressure;BME280_temperature;BME280_humidity;BME280_pressure;Samples;Min_cycle;Max_cycle;Signal;HPM_P1;HPM_P2
2023/11/26 00:00:07;;;;;;;9.05;3.63;;;;;;;;;;6132220;23;20020;-78
2023/11/26 00:02:36;;;;;;;3.78;2.67;;;;;;;;;;6132452;23;20020;-78
2023/11/26 00:05:04;;;;;;;2.90;2.17;;;;;;;;;;6156451;23;20487;-78
2023/11/26 00:07:31;;;;;;;2.78;2.58;;;;;;;;;;6132689;23;20460;-78
2023/11/26 00:10:00;;;;;;;4.13;2.50;;;;;;;;;;6155804;23;20020;-78
2023/11/26 00:12:29;;;;;;;2.38;1.60;;;;;;;;;;6156675;23;20030;-78
2023/11/26 00:14:59;;;;;;;3.72;2.38;;;;;;;;;;6183252;23;20356;-78
2023/11/26 00:17:26;;;;;;;2.22;2.00;;;;;;;;;;6132167;23;20021;-78
2023/11/26 00:19:54;;;;;;;2.22;2.00;;;;;;;;;;6132371;23;20017;-78
2023/11/26 00:22:28;;;;;;;1.92;1.13;;;;;;;;;;6132024;23;20017;-78
2023/11/26 00:24:57;;;;;;;3.30;2.25;;;;;;;;;;6132102;23;20017;-78
2023/11/26 00:27:26;;;;;;;5.95;2.20;;;;;;;;;;6132084;23;20025;-78
2023/11/26 00:29:56;;;;;;;3.08;2.35;;;;;;;;;;6132277;23;20017;-78
2023/11/26 00:32:26;;;;;;;1.92;1.80;;;;;;;;;;6183668;23;20536;-78
2023/11/26 00:34:54;;;;;;;2.47;1.63;;;;;;;;;;6132430;23;20017;-78
2023/11/26 00:37:23;;;;;;;3.92;2.05;;;;;;;;;;6157015;23;20020;-78
2023/11/26 00:39:53;;;;;;;3.78;1.55;;;;;;;;;;6132127;23;20017;-78
2023/11/26 00:42:22;;;;;;;2.65;1.92;;;;;;;;;;6132869;23;20032;-78
2023/11/26 00:44:53;;;;;;;2.90;1.88;;;;;;;;;;6156119;23;20348;-78
2023/11/26 00:47:20;;;;;;;2.47;2.03;;;;;;;;;;6166548;23;20453;-78
2023/11/26 00:49:47;;;;;;;2.55;1.88;;;;;;;;;;6156028;23;20465;-78
2023/11/26 00:52:17;;;;;;;2.22;1.33;;;;;;;;;;6132229;23;20032;-78
2023/11/26 00:54:46;;;;;;;3.00;2.30;;;;;;;;;;6157025;23;20024;-78
2023/11/26 00:57:14;;;;;;;2.88;2.05;;;;;;;;;;6130325;23;20024;-78
2023/11/26 00:59:41;;;;;;;3.17;1.95;;;;;;;;;;6156791;23;20024;-78
2023/11/26 01:02:10;;;;;;;2.45;1.92;;;;;;;;;;6132194;23;20021;-78
2023/11/26 01:04:37;;;;;;;3.17;2.08;;;;;;;;;;6132414;23;20468;-78
2023/11/26 01:07:07;;;;;;;3.70;2.65;;;;;;;;;;6133369;23;20024;-78
2023/11/26 01:09:34;;;;;;;3.00;2.20;;;;;;;;;;6155244;23;20024;-78
2023/11/26 01:12:04;;;;;;;4.75;2.72;;;;;;;;;;6157245;23;20024;-78
2023/11/26 01:14:34;;;;;;;2.83;2.55;;;;;;;;;;6157039;23;20020;-78
2023/11/26 01:17:04;;;;;;;3.70;2.50;;;;;;;;;;6157129;23;20463;-78
2023/11/26 01:19:33;;;;;;;3.67;2.45;;;;;;;;;;6132293;23;20028;-78
2023/11/26 01:22:00;;;;;;;3.70;2.67;;;;;;;;;;6157217;23;20345;-78
2023/11/26 01:24:30;;;;;;;4.60;3.47;;;;;;;;;;6132365;23;20449;-78
2023/11/26 01:26:57;;;;;;;2.22;2.03;;;;;;;;;;6129625;23;20017;-78
2023/11/26 01:29:27;;;;;;;2.10;1.90;;;;;;;;;;6132421;23;20357;-78
2023/11/26 01:31:54;;;;;;;4.25;2.55;;;;;;;;;;6131760;23;20078;-78
2023/11/26 01:34:25;;;;;;;4.55;2.50;;;;;;;;;;6132275;23;20027;-78
2023/11/26 01:36:53;;;;;;;3.92;2.55;;;;;;;;;;6157648;23;20475;-78
2023/11/26 01:39:24;;;;;;;3.40;2.78;;;;;;;;;;6134636;23;20021;-78
2023/11/26 01:41:51;;;;;;;3.47;2.67;;;;;;;;;;6158783;23;20318;-78
2023/11/26 01:44:21;;;;;;;4.22;2.95;;;;;;;;;;6134457;23;20017;-76
2023/11/26 01:46:54;;;;;;;2.47;1.95;;;;;;;;;;6134016;23;20028;-76
2023/11/26 01:49:25;;;;;;;2.45;1.85;;;;;;;;;;6134056;23;20024;-76
2023/11/26 01:51:59;;;;;;;2.33;2.08;;;;;;;;;;6134036;23;20786;-77
2023/11/26 01:54:26;;;;;;;2.03;1.77;;;;;;;;;;6134453;23;20020;-77
2023/11/26 01:56:53;;;;;;;3.85;2.30;;;;;;;;;;6133499;23;20017;-77
2023/11/26 01:59:21;;;;;;;2.47;2.17;;;;;;;;;;6132693;23;20028;-77
2023/11/26 02:01:50;;;;;;;2.92;2.72;;;;;;;;;;6131606;23;20021;-77
2023/11/26 02:04:17;;;;;;;3.67;2.42;;;;;;;;;;6133989;23;20345;-77
2023/11/26 02:06:45;;;;;;;2.63;2.30;;;;;;;;;;6134088;23;20021;-77
2023/11/26 02:09:16;;;;;;;2.60;2.05;;;;;;;;;;6158642;23;20017;-77
2023/11/26 02:11:46;;;;;;;3.45;2.17;;;;;;;;;;6158105;23;20024;-77
2023/11/26 02:14:17;;;;;;;3.20;1.70;;;;;;;;;;6157176;23;20036;-77
2023/11/26 02:16:46;;;;;;;2.70;2.45;;;;;;;;;;6132803;23;20024;-77
2023/11/26 02:19:25;;;;;;;3.25;1.73;;;;;;;;;;6134281;23;20472;-77
2023/11/26 02:21:56;;;;;;;3.05;2.78;;;;;;;;;;6133692;23;20039;-77
2023/11/26 02:24:31;;;;;;;2.25;1.70;;;;;;;;;;6159252;23;20016;-77
2023/11/26 02:27:00;;;;;;;4.07;2.47;;;;;;;;;;6132982;23;20345;-78
2023/11/26 02:29:27;;;;;;;2.70;2.40;;;;;;;;;;6158165;23;20017;-78
2023/11/26 02:31:59;;;;;;;2.22;2.03;;;;;;;;;;6133323;23;20029;-78
2023/11/26 02:34:29;;;;;;;2.78;2.10;;;;;;;;;;6133315;23;20021;-78
2023/11/26 02:36:56;;;;;;;3.35;2.50;;;;;;;;;;6133710;23;20028;-78
2023/11/26 02:39:24;;;;;;;2.47;1.63;;;;;;;;;;6158793;23;20476;-78
2023/11/26 02:41:52;;;;;;;2.67;1.95;;;;;;;;;;6158649;23;20017;-77
2023/11/26 02:44:20;;;;;;;4.22;2.35;;;;;;;;;;6157033;23;20037;-77
2023/11/26 02:46:50;;;;;;;3.53;2.35;;;;;;;;;;6158093;23;20021;-77
2023/11/26 02:49:19;;;;;;;3.60;2.65;;;;;;;;;;6133709;23;20040;-77
2023/11/26 02:51:47;;;;;;;3.00;2.05;;;;;;;;;;6133800;23;20021;-77
2023/11/26 02:54:17;;;;;;;2.30;1.90;;;;;;;;;;6158441;23;20017;-77
2023/11/26 02:56:47;;;;;;;2.88;1.92;;;;;;;;;;6158991;23;20433;-77
2023/11/26 02:59:16;;;;;;;2.83;1.45;;;;;;;;;;6185166;23;20013;-77
2023/11/26 03:01:47;;;;;;;2.75;1.67;;;;;;;;;;6133048;23;20096;-77
2023/11/26 03:04:21;;;;;;;2.35;1.80;;;;;;;;;;6133949;23;20013;-77
2023/11/26 03:06:49;;;;;;;1.98;1.45;;;;;;;;;;6134173;23;20365;-78
2023/11/26 03:09:40;;;;;;;4.13;3.08;;;;;;;;;;6161119;23;20013;-78
2023/11/26 03:14:55;;;;;;;2.08;1.80;;;;;;;;;;6169468;23;20013;-79
2023/11/26 03:17:26;;;;;;;38.22;4.05;;;;;;;;;;6133844;23;20028;-79
2023/11/26 03:19:53;;;;;;;2.72;1.92;;;;;;;;;;6135452;23;20017;-79
2023/11/26 03:22:20;;;;;;;4.65;2.88;;;;;;;;;;6160047;23;20020;-79
2023/11/26 03:24:51;;;;;;;3.63;3.30;;;;;;;;;;6135937;23;20017;-79
2023/11/26 03:27:18;;;;;;;4.95;3.67;;;;;;;;;;6159343;23;20017;-79
2023/11/26 03:29:45;;;;;;;3.42;2.67;;;;;;;;;;6135186;23;20353;-79
2023/11/26 03:32:13;;;;;;;6.18;3.38;;;;;;;;;;6133737;23;20024;-79
2023/11/26 03:34:41;;;;;;;5.30;3.03;;;;;;;;;;6135064;23;20465;-79
2023/11/26 03:37:10;;;;;;;4.50;3.17;;;;;;;;;;6158276;23;20017;-79
2023/11/26 03:39:40;;;;;;;4.13;3.67;;;;;;;;;;6160453;23;20453;-79
2023/11/26 03:42:10;;;;;;;2.30;2.10;;;;;;;;;;6135447;23;20024;-79
2023/11/26 03:44:37;;;;;;;5.57;3.38;;;;;;;;;;6135404;23;20472;-79
2023/11/26 03:47:04;;;;;;;3.72;2.88;;;;;;;;;;6135175;23;20021;-79
2023/11/26 03:49:34;;;;;;;4.07;3.40;;;;;;;;;;6160365;23;20024;-79
2023/11/26 03:52:04;;;;;;;4.45;3.17;;;;;;;;;;6135734;23;20353;-79
2023/11/26 03:54:31;;;;;;;3.08;2.33;;;;;;;;;;6185041;23;20036;-79
2023/11/26 03:56:58;;;;;;;3.22;2.83;;;;;;;;;;6134813;23;20024;-79
2023/11/26 03:59:26;;;;;;;6.43;4.32;;;;;;;;;;6134642;23;20017;-79
2023/11/26 04:01:55;;;;;;;5.47;2.50;;;;;;;;;;6161060;23;20024;-80
2023/11/26 04:04:25;;;;;;;3.15;2.67;;;;;;;;;;6164575;23;20017;-80
2023/11/26 04:06:52;;;;;;;4.95;3.22;;;;;;;;;;6138888;23;20021;-80
2023/11/26 04:09:20;;;;;;;4.05;3.10;;;;;;;;;;6165173;23;20023;-80
2023/11/26 04:11:48;;;;;;;5.47;2.92;;;;;;;;;;6139942;23;20017;-80
2023/11/26 04:14:17;;;;;;;4.65;3.28;;;;;;;;;;6141216;23;20033;-80
2023/11/26 04:16:48;;;;;;;3.33;3.00;;;;;;;;;;6139399;23;20017;-80
2023/11/26 04:19:16;;;;;;;3.25;2.95;;;;;;;;;;6138678;23;20333;-80
2023/11/26 04:21:46;;;;;;;5.22;3.50;;;;;;;;;;6141273;23;20024;-80
2023/11/26 04:24:14;;;;;;;4.15;3.72;;;;;;;;;;6190747;23;20017;-80
2023/11/26 04:26:42;;;;;;;5.53;3.58;;;;;;;;;;6164403;23;20350;-80
2023/11/26 04:29:10;;;;;;;4.82;3.33;;;;;;;;;;6187335;23;20331;-76
2023/11/26 04:31:40;;;;;;;4.88;3.42;;;;;;;;;;6182663;23;20013;-78
2023/11/26 04:34:07;;;;;;;5.15;3.47;;;;;;;;;;6157634;23;20013;-78
2023/11/26 04:36:34;;;;;;;10.95;3.65;;;;;;;;;;6155766;23;20028;-78
2023/11/26 04:39:08;;;;;;;3.72;3.15;;;;;;;;;;6133285;23;20024;-78
2023/11/26 04:41:40;;;;;;;4.18;2.85;;;;;;;;;;6157570;23;20024;-78
2023/11/26 04:44:09;;;;;;;3.83;3.40;;;;;;;;;;6156509;23;20024;-78
2023/11/26 04:46:36;;;;;;;8.07;3.80;;;;;;;;;;6156702;23;20733;-78
2023/11/26 04:49:03;;;;;;;4.60;3.00;;;;;;;;;;6155851;23;20017;-78
2023/11/26 04:51:35;;;;;;;4.13;3.15;;;;;;;;;;6156787;23;20013;-78
2023/11/26 04:54:03;;;;;;;5.85;3.05;;;;;;;;;;6132365;23;20457;-78
2023/11/26 04:56:30;;;;;;;4.05;3.30;;;;;;;;;;6131275;23;20021;-78
2023/11/26 04:59:00;;;;;;;5.28;3.67;;;;;;;;;;6182190;23;20017;-78
2023/11/26 05:01:31;;;;;;;5.85;3.13;;;;;;;;;;6131764;23;20021;-78
2023/11/26 05:03:59;;;;;;;5.25;3.00;;;;;;;;;;6132398;23;20013;-78
2023/11/26 05:06:26;;;;;;;6.45;3.10;;;;;;;;;;6182266;23;20028;-78
2023/11/26 05:08:54;;;;;;;4.18;3.40;;;;;;;;;;6132931;23;20468;-78
2023/11/26 05:11:26;;;;;;;3.53;3.22;;;;;;;;;;6131104;23;20453;-78
2023/11/26 05:13:53;;;;;;;4.18;3.53;;;;;;;;;;6132422;23;20016;-78
2023/11/26 05:16:23;;;;;;;4.82;4.32;;;;;;;;;;6155067;23;20021;-78
2023/11/26 05:18:52;;;;;;;3.85;3.53;;;;;;;;;;6156903;23;20013;-78
2023/11/26 05:21:21;;;;;;;4.22;3.42;;;;;;;;;;6131271;23;20024;-78
2023/11/26 05:23:49;;;;;;;4.30;3.60;;;;;;;;;;6131003;23;20017;-78
2023/11/26 05:26:18;;;;;;;3.92;3.40;;;;;;;;;;6132616;23;20032;-78
2023/11/26 05:28:45;;;;;;;7.07;3.17;;;;;;;;;;6156967;23;20314;-78
2023/11/26 05:31:15;;;;;;;6.40;3.58;;;;;;;;;;6132028;23;20479;-78
2023/11/26 05:33:45;;;;;;;7.10;3.88;;;;;;;;;;6132143;23;20028;-78
2023/11/26 05:36:16;;;;;;;11.43;4.93;;;;;;;;;;6182557;23;20032;-78
2023/11/26 05:38:46;;;;;;;4.03;3.17;;;;;;;;;;6156400;23;20021;-78
2023/11/26 05:41:18;;;;;;;4.82;4.00;;;;;;;;;;6185561;23;20021;-78
2023/11/26 05:43:46;;;;;;;5.75;4.93;;;;;;;;;;6132063;23;20024;-78
2023/11/26 05:46:15;;;;;;;4.75;4.25;;;;;;;;;;6131606;23;20020;-78
2023/11/26 05:48:42;;;;;;;6.25;4.20;;;;;;;;;;6132138;23;20027;-78
2023/11/26 05:51:12;;;;;;;4.47;3.53;;;;;;;;;;6132247;23;20017;-78
2023/11/26 05:53:40;;;;;;;4.85;3.38;;;;;;;;;;6182281;23;20020;-78
2023/11/26 05:56:10;;;;;;;5.43;3.42;;;;;;;;;;6193770;23;20440;-78
2023/11/26 05:58:37;;;;;;;6.10;3.45;;;;;;;;;;6131704;23;20360;-78
2023/11/26 06:01:10;;;;;;;4.25;3.75;;;;;;;;;;6133019;23;20337;-78
2023/11/26 06:03:42;;;;;;;5.33;3.90;;;;;;;;;;6167458;23;20021;-78
2023/11/26 06:06:09;;;;;;;5.78;3.92;;;;;;;;;;6156546;23;20018;-78
2023/11/26 06:08:43;;;;;;;4.45;3.35;;;;;;;;;;6167330;23;20020;-78
2023/11/26 06:11:13;;;;;;;4.18;3.78;;;;;;;;;;6156664;23;20488;-78
2023/11/26 06:13:40;;;;;;;3.97;3.13;;;;;;;;;;6156938;23;20021;-78
2023/11/26 06:16:10;;;;;;;8.00;4.25;;;;;;;;;;6156478;23;20013;-78
2023/11/26 06:18:42;;;;;;;5.85;3.85;;;;;;;;;;6156895;23;20021;-78
2023/11/26 06:21:09;;;;;;;5.18;3.95;;;;;;;;;;6131982;23;20028;-78
2023/11/26 06:23:39;;;;;;;5.65;3.95;;;;;;;;;;6158639;23;20017;-78
2023/11/26 06:26:07;;;;;;;3.63;3.33;;;;;;;;;;6133439;23;20017;-78
2023/11/26 06:28:34;;;;;;;5.18;4.43;;;;;;;;;;6132257;23;20017;-78
2023/11/26 06:31:06;;;;;;;5.97;4.75;;;;;;;;;;6163018;23;20020;-78
2023/11/26 06:33:36;;;;;;;6.22;5.60;;;;;;;;;;6157782;23;20025;-78
2023/11/26 06:36:03;;;;;;;5.63;5.05;;;;;;;;;;6133615;23;20024;-78
2023/11/26 06:38:35;;;;;;;5.57;4.75;;;;;;;;;;6157351;23;20021;-78
2023/11/26 06:41:02;;;;;;;6.90;4.85;;;;;;;;;;6133016;23;20028;-78
2023/11/26 06:43:31;;;;;;;10.18;6.47;;;;;;;;;;6158544;23;20013;-78
2023/11/26 06:46:01;;;;;;;4.90;3.95;;;;;;;;;;6157601;23;20014;-78
2023/11/26 06:48:30;;;;;;;4.03;3.67;;;;;;;;;;6157441;23;20021;-78
2023/11/26 06:51:03;;;;;;;4.47;4.07;;;;;;;;;;6162703;23;20021;-79
2023/11/26 06:53:33;;;;;;;4.13;3.72;;;;;;;;;;6183925;23;20024;-79
2023/11/26 06:56:03;;;;;;;4.78;3.88;;;;;;;;;;6133100;23;20017;-79
2023/11/26 06:58:31;;;;;;;5.90;4.00;;;;;;;;;;6181635;23;20044;-79
2023/11/26 07:01:01;;;;;;;5.10;4.03;;;;;;;;;;6156022;23;20021;-78
2023/11/26 07:03:30;;;;;;;3.58;3.15;;;;;;;;;;6157083;23;20024;-79
2023/11/26 07:05:57;;;;;;;4.53;3.33;;;;;;;;;;6156598;23;20032;-79
2023/11/26 07:08:25;;;;;;;6.53;4.47;;;;;;;;;;6157097;23;20024;-79
2023/11/26 07:10:52;;;;;;;5.03;3.40;;;;;;;;;;6180774;23;20017;-79
2023/11/26 07:13:22;;;;;;;6.25;4.40;;;;;;;;;;6132757;23;20037;-79
2023/11/26 07:15:53;;;;;;;7.55;4.22;;;;;;;;;;6132656;23;20017;-79
2023/11/26 07:18:20;;;;;;;4.97;3.45;;;;;;;;;;6157674;23;20021;-79
2023/11/26 07:20:49;;;;;;;5.32;4.53;;;;;;;;;;6157454;23;20013;-79
2023/11/26 07:23:17;;;;;;;6.20;3.55;;;;;;;;;;6132963;23;20017;-79
2023/11/26 07:25:44;;;;;;;4.15;3.78;;;;;;;;;;6132484;23;20357;-79
2023/11/26 07:28:12;;;;;;;5.57;4.30;;;;;;;;;;6132666;23;20017;-79
2023/11/26 07:30:39;;;;;;;9.07;6.80;;;;;;;;;;6157485;23;20025;-79
2023/11/26 07:33:07;;;;;;;7.78;6.38;;;;;;;;;;6131592;23;20296;-79
2023/11/26 07:35:34;;;;;;;5.07;4.50;;;;;;;;;;6167485;23;20016;-79
2023/11/26 07:38:08;;;;;;;7.72;5.97;;;;;;;;;;6133452;23;20021;-79
2023/11/26 07:40:38;;;;;;;7.70;5.43;;;;;;;;;;6157656;23;20024;-79
2023/11/26 07:43:08;;;;;;;7.25;5.22;;;;;;;;;;6133566;23;20017;-79
2023/11/26 07:45:38;;;;;;;5.10;4.65;;;;;;;;;;6133414;23;20024;-79
2023/11/26 07:48:09;;;;;;;6.35;5.28;;;;;;;;;;6160505;23;20020;-79
2023/11/26 07:50:38;;;;;;;4.82;4.00;;;;;;;;;;6134510;23;20024;-80
2023/11/26 07:53:06;;;;;;;8.35;5.28;;;;;;;;;;6136168;23;20021;-80
2023/11/26 07:55:36;;;;;;;7.78;5.45;;;;;;;;;;6136166;23;20024;-79
2023/11/26 07:58:03;;;;;;;5.60;3.85;;;;;;;;;;6159681;23;20020;-80
2023/11/26 08:00:30;;;;;;;7.97;6.13;;;;;;;;;;6135742;23;20021;-80
2023/11/26 08:02:59;;;;;;;5.63;5.10;;;;;;;;;;6134683;23;20032;-80
2023/11/26 08:05:30;;;;;;;6.10;4.45;;;;;;;;;;6135087;23;20017;-80
2023/11/26 08:07:57;;;;;;;11.57;6.68;;;;;;;;;;6169099;23;20028;-80
2023/11/26 08:10:28;;;;;;;6.10;4.78;;;;;;;;;;6134816;23;20021;-80
2023/11/26 08:12:57;;;;;;;8.45;5.68;;;;;;;;;;6196155;23;20013;-80
2023/11/26 08:15:28;;;;;;;6.40;5.80;;;;;;;;;;6134699;23;20028;-80
2023/11/26 08:17:56;;;;;;;7.28;5.55;;;;;;;;;;6134816;23;20021;-80
2023/11/26 08:20:28;;;;;;;6.20;5.57;;;;;;;;;;6158978;23;20017;-80
2023/11/26 08:22:59;;;;;;;8.90;5.15;;;;;;;;;;6136329;23;20334;-80
2023/11/26 08:25:33;;;;;;;9.55;6.60;;;;;;;;;;6136044;23;20029;-80
2023/11/26 08:28:02;;;;;;;7.68;4.75;;;;;;;;;;6134998;23;20021;-80
2023/11/26 08:30:36;;;;;;;9.48;7.22;;;;;;;;;;6157745;23;20021;-80
2023/11/26 08:33:06;;;;;;;7.85;5.60;;;;;;;;;;6167559;23;20349;-80
2023/11/26 08:35:40;;;;;;;10.40;8.70;;;;;;;;;;6158955;23;20365;-80
2023/11/26 08:38:09;;;;;;;11.80;8.10;;;;;;;;;;6133468;23;20020;-80
2023/11/26 08:40:39;;;;;;;10.07;8.13;;;;;;;;;;6134909;23;20021;-80
2023/11/26 08:43:10;;;;;;;9.52;7.45;;;;;;;;;;6159404;23;20023;-80
2023/11/26 08:45:39;;;;;;;8.75;6.60;;;;;;;;;;6134259;23;20017;-80
2023/11/26 08:48:10;;;;;;;9.93;8.68;;;;;;;;;;6134260;23;20027;-80
2023/11/26 08:50:43;;;;;;;;;;;;;;;;;;6165351;23;20385;-80
2023/11/26 08:53:12;;;;;;;8.27;6.55;;;;;;;;;;6135292;23;19930;-80
2023/11/26 08:55:39;;;;;;;8.43;6.90;;;;;;;;;;6133489;23;20021;-80
2023/11/26 08:58:09;;;;;;;9.00;6.15;;;;;;;;;;6134507;23;20553;-80
2023/11/26 09:00:36;;;;;;;11.18;8.13;;;;;;;;;;6159105;23;20028;-80
2023/11/26 09:03:04;;;;;;;9.40;7.80;;;;;;;;;;6159138;23;20024;-80
2023/11/26 09:05:36;;;;;;;9.75;6.38;;;;;;;;;;6196106;23;20032;-80
2023/11/26 09:08:07;;;;;;;6.38;5.78;;;;;;;;;;6183769;23;20326;-80
2023/11/26 09:10:39;;;;;;;8.57;7.10;;;;;;;;;;6192002;23;20017;-80
2023/11/26 09:13:08;;;;;;;9.50;7.40;;;;;;;;;;6158856;23;20461;-80
2023/11/26 09:15:41;;;;;;;12.23;7.75;;;;;;;;;;6159062;23;20060;-80
2023/11/26 09:18:09;;;;;;;7.55;6.85;;;;;;;;;;6158293;23;20508;-80
2023/11/26 09:20:36;;;;;;;6.03;5.47;;;;;;;;;;6134744;23;20191;-80
2023/11/26 09:23:04;;;;;;;8.90;5.82;;;;;;;;;;6160364;23;20013;-80
2023/11/26 09:25:33;;;;;;;5.50;4.43;;;;;;;;;;6158119;23;20021;-80
2023/11/26 09:28:03;;;;;;;6.95;6.25;;;;;;;;;;6194840;23;20497;-80
2023/11/26 09:30:30;;;;;;;5.55;4.97;;;;;;;;;;6158450;23;20017;-80
2023/11/26 09:32:57;;;;;;;9.20;5.50;;;;;;;;;;6185418;23;20358;-80
2023/11/26 09:35:25;;;;;;;8.13;5.38;;;;;;;;;;6185625;23;20020;-80
2023/11/26 09:37:54;;;;;;;7.40;4.90;;;;;;;;;;6183525;23;20365;-80
2023/11/26 09:40:21;;;;;;;7.30;5.00;;;;;;;;;;6159038;23;20021;-80
2023/11/26 09:42:52;;;;;;;5.30;4.78;;;;;;;;;;6133556;23;20020;-80
2023/11/26 09:45:21;;;;;;;6.18;4.38;;;;;;;;;;6169605;23;20028;-80
2023/11/26 09:47:52;;;;;;;7.65;4.95;;;;;;;;;;6134166;23;20028;-80
2023/11/26 09:50:19;;;;;;;5.35;4.85;;;;;;;;;;6166819;23;20013;-80
2023/11/26 09:52:49;;;;;;;7.22;4.85;;;;;;;;;;6158838;23;20028;-80
2023/11/26 09:55:20;;;;;;;5.70;4.53;;;;;;;;;;6159388;23;20031;-80
2023/11/26 09:57:51;;;;;;;5.30;4.00;;;;;;;;;;6160491;23;20021;-80
2023/11/26 10:00:20;;;;;;;5.28;4.78;;;;;;;;;;6167402;23;20353;-80
2023/11/26 10:02:59;;;;;;;8.20;5.90;;;;;;;;;;6136624;23;20028;-80
2023/11/26 10:05:27;;;;;;;5.38;4.53;;;;;;;;;;6136623;23;20021;-80
2023/11/26 10:07:56;;;;;;;6.05;3.85;;;;;;;;;;6136359;23;20020;-80
2023/11/26 10:10:24;;;;;;;5.88;5.00;;;;;;;;;;6135774;23;20016;-80
2023/11/26 10:12:57;;;;;;;7.55;4.32;;;;;;;;;;6136406;23;20057;-80
2023/11/26 10:15:26;;;;;;;6.80;4.45;;;;;;;;;;6186835;23;20028;-80
2023/11/26 10:18:04;;;;;;;5.90;5.30;;;;;;;;;;6136123;23;20017;-80
2023/11/26 10:20:34;;;;;;;6.55;4.70;;;;;;;;;;6137108;23;20025;-80
2023/11/26 10:23:02;;;;;;;6.50;5.07;;;;;;;;;;6136378;23;20017;-80
2023/11/26 10:25:32;;;;;;;6.95;4.05;;;;;;;;;;6136104;23;20021;-80
2023/11/26 10:28:03;;;;;;;5.88;4.72;;;;;;;;;;6136249;23;20013;-80
2023/11/26 10:30:32;;;;;;;6.40;5.40;;;;;;;;;;6125473;23;20025;-79
2023/11/26 10:33:03;;;;;;;6.50;4.20;;;;;;;;;;6140048;23;20020;-79
2023/11/26 10:35:48;;;;;;;7.82;4.85;;;;;;;;;;6107519;23;20333;-79
2023/11/26 10:38:17;;;;;;;7.78;4.35;;;;;;;;;;6109721;23;20013;-80
2023/11/26 10:40:48;;;;;;;;;;;;;;;;;;6167075;23;20024;-80
2023/11/26 10:43:20;;;;;;;6.10;4.38;;;;;;;;;;6136696;23;19917;-80
2023/11/26 10:45:47;;;;;;;5.30;4.72;;;;;;;;;;6147944;23;20018;-81
2023/11/26 10:48:15;;;;;;;8.52;6.57;;;;;;;;;;6110620;23;20024;-80
2023/11/26 10:50:49;;;;;;;7.78;6.80;;;;;;;;;;6111910;23;20040;-80
2023/11/26 10:53:29;;;;;;;6.22;5.15;;;;;;;;;;6135861;23;20035;-81
2023/11/26 10:56:00;;;;;;;14.90;6.80;;;;;;;;;;6114178;23;20044;-80
2023/11/26 10:58:36;;;;;;;6.30;4.80;;;;;;;;;;6111615;23;20462;-80
2023/11/26 11:01:07;;;;;;;6.82;5.22;;;;;;;;;;6161429;23;20018;-80
2023/11/26 11:03:34;;;;;;;7.55;4.07;;;;;;;;;;6159734;23;20009;-80
2023/11/26 11:06:05;;;;;;;6.13;4.45;;;;;;;;;;6106648;23;20031;-80
2023/11/26 11:08:40;;;;;;;8.35;4.85;;;;;;;;;;6141243;23;20020;-80
2023/11/26 11:11:11;;;;;;;7.60;4.57;;;;;;;;;;6107133;23;20021;-81
2023/11/26 11:13:40;;;;;;;6.07;5.03;;;;;;;;;;6156018;23;20071;-80
2023/11/26 11:16:11;;;;;;;6.47;4.53;;;;;;;;;;6167404;23;20065;-80
2023/11/26 11:18:41;;;;;;;7.68;4.25;;;;;;;;;;6157861;23;20020;-80
2023/11/26 11:21:10;;;;;;;4.78;4.35;;;;;;;;;;6108142;23;20362;-80
2023/11/26 11:23:41;;;;;;;7.88;4.07;;;;;;;;;;6159377;23;20021;-80
2023/11/26 11:26:12;;;;;;;6.43;5.22;;;;;;;;;;6165333;23;20048;-80
2023/11/26 11:28:43;;;;;;;4.88;4.32;;;;;;;;;;6140660;23;20527;-81
2023/11/26 11:31:14;;;;;;;6.47;4.00;;;;;;;;;;6120605;23;20018;-81
2023/11/26 11:34:17;;;;;;;8.40;4.53;;;;;;;;;;6169165;23;20017;-81
2023/11/26 11:36:55;;;;;;;6.07;4.43;;;;;;;;;;6115867;23;20482;-81
2023/11/26 11:39:25;;;;;;;6.78;4.60;;;;;;;;;;6162634;23;20462;-81
2023/11/26 11:42:09;;;;;;;4.72;3.63;;;;;;;;;;6110983;23;20018;-81
2023/11/26 11:44:40;;;;;;;7.68;4.93;;;;;;;;;;6135058;23;20473;-81
2023/11/26 11:47:10;;;;;;;6.00;4.47;;;;;;;;;;6157985;23;20508;-80
2023/11/26 11:50:08;;;;;;;4.80;4.20;;;;;;;;;;6170305;23;20013;-80
2023/11/26 11:52:40;;;;;;;7.13;4.30;;;;;;;;;;6107950;23;20029;-80
2023/11/26 11:55:29;;;;;;;7.85;5.05;;;;;;;;;;6133040;23;20028;-81
2023/11/26 11:57:57;;;;;;;5.35;4.85;;;;;;;;;;6107438;23;20052;-81
2023/11/26 12:00:34;;;;;;;6.22;4.45;;;;;;;;;;6134343;23;20024;-81
2023/11/26 12:03:02;;;;;;;9.18;4.28;;;;;;;;;;6108344;23;20027;-81
2023/11/26 12:05:29;;;;;;;7.93;4.45;;;;;;;;;;6133740;23;20021;-81
2023/11/26 12:07:57;;;;;;;7.45;4.88;;;;;;;;;;6159052;23;20017;-81
2023/11/26 12:10:25;;;;;;;6.45;4.18;;;;;;;;;;6161751;23;20017;-81
2023/11/26 12:13:05;;;;;;;5.00;4.22;;;;;;;;;;6138141;23;20024;-81
2023/11/26 12:15:35;;;;;;;5.60;4.55;;;;;;;;;;6114857;23;20018;-81
2023/11/26 12:18:02;;;;;;;6.05;4.30;;;;;;;;;;6140658;23;20014;-81
2023/11/26 12:20:30;;;;;;;6.63;4.03;;;;;;;;;;6167558;23;20017;-81
2023/11/26 12:22:57;;;;;;;7.22;5.30;;;;;;;;;;6114635;23;20025;-81
2023/11/26 12:25:27;;;;;;;6.30;4.75;;;;;;;;;;6113577;23;20022;-81
2023/11/26 12:28:05;;;;;;;8.13;4.50;;;;;;;;;;6111381;23;20339;-81
2023/11/26 12:30:36;;;;;;;5.03;4.60;;;;;;;;;;6111612;23;20024;-81
2023/11/26 12:33:12;;;;;;;5.00;4.50;;;;;;;;;;6171328;23;20017;-80
2023/11/26 12:35:39;;;;;;;4.60;3.13;;;;;;;;;;6109702;23;20033;-80
2023/11/26 12:38:09;;;;;;;4.00;3.30;;;;;;;;;;6109852;23;20014;-80
2023/11/26 12:40:39;;;;;;;4.18;2.90;;;;;;;;;;6109653;23;20024;-80
2023/11/26 12:43:07;;;;;;;4.53;2.50;;;;;;;;;;6168829;23;20013;-80
2023/11/26 12:45:35;;;;;;;4.85;2.95;;;;;;;;;;6107155;23;20025;-81
2023/11/26 12:48:03;;;;;;;2.83;2.50;;;;;;;;;;6107201;23;20024;-81
2023/11/26 12:50:41;;;;;;;3.05;2.60;;;;;;;;;;6108612;23;20017;-80
2023/11/26 12:53:11;;;;;;;5.28;3.88;;;;;;;;;;6135594;23;20377;-80
2023/11/26 12:55:44;;;;;;;6.78;4.25;;;;;;;;;;6159689;23;20359;-80
2023/11/26 12:58:20;;;;;;;3.92;3.05;;;;;;;;;;6108967;23;20021;-81
2023/11/26 13:00:51;;;;;;;7.75;3.40;;;;;;;;;;6111095;23;20017;-80
2023/11/26 13:03:20;;;;;;;5.38;3.15;;;;;;;;;;6160836;23;20028;-80
2023/11/26 13:05:50;;;;;;;3.78;2.70;;;;;;;;;;6135626;23;20028;-80
2023/11/26 13:08:20;;;;;;;4.25;2.97;;;;;;;;;;6110131;23;20014;-80
2023/11/26 13:10:51;;;;;;;9.15;3.40;;;;;;;;;;6110410;23;20022;-80
2023/11/26 13:13:22;;;;;;;5.38;3.85;;;;;;;;;;6145194;23;20024;-80
2023/11/26 13:15:53;;;;;;;4.07;3.05;;;;;;;;;;6159522;23;20417;-80
2023/11/26 13:18:26;;;;;;;5.35;3.75;;;;;;;;;;6111925;23;20021;-80
2023/11/26 13:20:56;;;;;;;6.03;4.15;;;;;;;;;;6110421;23;20018;-80
2023/11/26 13:23:24;;;;;;;7.18;3.45;;;;;;;;;;6134860;23;20032;-80
2023/11/26 13:25:58;;;;;;;3.92;3.25;;;;;;;;;;6111408;23;20017;-80
2023/11/26 13:28:30;;;;;;;5.55;4.57;;;;;;;;;;6170273;23;20024;-80
2023/11/26 13:30:59;;;;;;;4.93;4.43;;;;;;;;;;6134975;23;20014;-80
2023/11/26 13:33:30;;;;;;;7.50;4.93;;;;;;;;;;6144881;23;20028;-80
2023/11/26 13:35:59;;;;;;;6.82;4.30;;;;;;;;;;6162013;23;20024;-81
2023/11/26 13:38:29;;;;;;;5.47;4.45;;;;;;;;;;6171038;23;20010;-81
2023/11/26 13:40:57;;;;;;;6.10;4.72;;;;;;;;;;6134864;23;20022;-80
2023/11/26 13:43:24;;;;;;;8.07;5.05;;;;;;;;;;6110509;23;20026;-80
2023/11/26 13:45:55;;;;;;;6.22;4.15;;;;;;;;;;6159489;23;20031;-80
2023/11/26 13:48:24;;;;;;;6.28;4.82;;;;;;;;;;6108802;23;20017;-80
2023/11/26 13:50:52;;;;;;;9.35;5.60;;;;;;;;;;6158722;23;20022;-81
2023/11/26 13:53:19;;;;;;;4.35;3.75;;;;;;;;;;6134984;23;20013;-81
2023/11/26 13:55:47;;;;;;;7.25;4.65;;;;;;;;;;6107923;23;20024;-81
2023/11/26 13:58:15;;;;;;;5.35;4.10;;;;;;;;;;6107472;23;20478;-80
2023/11/26 14:00:43;;;;;;;6.60;5.53;;;;;;;;;;6132834;23;20472;-80
2023/11/26 14:03:11;;;;;;;5.40;4.28;;;;;;;;;;6133056;23;20474;-80
2023/11/26 14:05:39;;;;;;;5.38;4.15;;;;;;;;;;6135577;23;20020;-81
2023/11/26 14:08:08;;;;;;;6.93;4.82;;;;;;;;;;6109455;23;20509;-81
2023/11/26 14:10:35;;;;;;;5.15;4.40;;;;;;;;;;6110314;23;20362;-81
2023/11/26 14:13:03;;;;;;;6.35;4.45;;;;;;;;;;6159144;23;20028;-81
2023/11/26 14:15:30;;;;;;;8.45;5.80;;;;;;;;;;6159423;23;20025;-81
2023/11/26 14:18:02;;;;;;;10.43;5.82;;;;;;;;;;6161197;23;20235;-81
2023/11/26 14:20:29;;;;;;;11.23;5.47;;;;;;;;;;6134238;23;20024;-81
2023/11/26 14:22:58;;;;;;;6.40;5.68;;;;;;;;;;6161351;23;20020;-81
2023/11/26 14:25:28;;;;;;;11.13;5.10;;;;;;;;;;6134625;23;20028;-81
2023/11/26 14:27:55;;;;;;;15.50;6.18;;;;;;;;;;6159581;23;20018;-81
2023/11/26 14:30:23;;;;;;;9.25;5.72;;;;;;;;;;6159047;23;20018;-80
2023/11/26 14:32:51;;;;;;;5.68;5.07;;;;;;;;;;6161599;23;20377;-80
2023/11/26 14:35:21;;;;;;;6.45;5.60;;;;;;;;;;6158984;23;20024;-80
2023/11/26 14:37:48;;;;;;;5.97;5.43;;;;;;;;;;6110342;23;20021;-80
2023/11/26 14:40:18;;;;;;;11.50;5.20;;;;;;;;;;6111067;23;20014;-80
2023/11/26 14:42:48;;;;;;;7.35;5.53;;;;;;;;;;6171782;23;20014;-81
2023/11/26 14:45:16;;;;;;;8.68;4.65;;;;;;;;;;6137137;23;20017;-81
2023/11/26 14:47:45;;;;;;;5.15;4.68;;;;;;;;;;6113113;23;20025;-81
2023/11/26 14:50:14;;;;;;;5.32;4.55;;;;;;;;;;6111829;23;20024;-80
2023/11/26 14:52:45;;;;;;;9.15;5.72;;;;;;;;;;6136967;23;20014;-80
2023/11/26 14:55:13;;;;;;;8.07;5.32;;;;;;;;;;6162776;23;20045;-80
2023/11/26 14:57:41;;;;;;;10.05;4.88;;;;;;;;;;6111957;23;20361;-80
2023/11/26 15:00:10;;;;;;;8.93;5.70;;;;;;;;;;6162937;23;20023;-81